Hozan Maru — JL6681 — position and weather

sailwx.info

Track history (hours):
 
Tides and Currents Weather Stations Pressure Air Temp Water Temp Dewpoint Dewpoint Depression Visibility Wind Speed Wind Dir Waves Ship Positions

Hozan Maru

Last reported at 2017-Nov-19 11:25 UTC. Time now 2017-Nov-21 23:15 UTC.
Position N 34°37' E 134°55'.

Length 70 m; draft 4.8 m.

Type: Tanker. MMSI: 431501711.

Date/timePositionNaut miles runAvg speedWind from/ knotsBaromVisibWave heightAir tempDewpointWater temp
2017-Nov-19 11:25N 34°37' E 134°55'513.4
2017-Nov-19 11:00N 34°37' E 135°01'611.1
2017-Nov-19 10:30N 34°32' E 135°04'25 5.0
2017-Nov-19 05:24N 34°07' E 135°08'3 8.8
2017-Nov-19 05:00N 34°10' E 135°06'1114.0
2017-Nov-19 04:13N 34°21' E 135°05'314.8
2017-Nov-19 04:00N 34°24' E 135°04'714.2
2017-Nov-19 03:30N 34°31' E 135°04'712.6
2017-Nov-19 02:58N 34°37' E 135°00'4 0.3
2017-Nov-18 11:31N 34°37' E 134°55'011.3
2017-Nov-18 11:30N 34°37' E 134°55'713.9
2017-Nov-18 11:00N 34°36' E 135°04'2211.8
2017-Nov-18 09:10N 34°15' E 135°01'212.5
2017-Nov-18 09:00N 34°13' E 135°02'7 2.1
2017-Nov-18 05:38N 34°07' E 135°07'0 0.2
2017-Nov-18 05:30N 34°07' E 135°07'611.7
2017-Nov-18 05:00N 34°13' E 135°04'814.0
2017-Nov-18 04:26N 34°21' E 135°03'614.5
2017-Nov-18 04:00N 34°27' E 135°03'714.1
2017-Nov-18 03:30N 34°34' E 135°03'  
2017-Nov-15 10:54N 34°37' E 134°55'513.4
2017-Nov-15 10:30N 34°37' E 135°02'612.5
2017-Nov-15 10:00N 34°36' E 135°09'612.0
2017-Nov-15 09:30N 34°36' E 135°16'611.8
2017-Nov-15 09:00N 34°34' E 135°23'2 0.6
2017-Nov-15 05:17N 34°33' E 135°26'413.1
2017-Nov-15 05:00N 34°34' E 135°22'713.9
2017-Nov-15 04:30N 34°34' E 135°13'714.5
2017-Nov-15 04:00N 34°35' E 135°04'8 0.5
2017-Nov-14 10:51N 34°37' E 134°55'514.1
2017-Nov-14 10:29N 34°37' E 135°01'511.2
2017-Nov-14 10:00N 34°33' E 135°04'1812.9
2017-Nov-14 08:37N 34°15' E 135°01'213.7
2017-Nov-14 08:30N 34°14' E 135°02'612.9
2017-Nov-14 08:00N 34°08' E 135°06'  
Track history (hours):
 
Tides and Currents Weather Stations Pressure Air Temp Water Temp Dewpoint Dewpoint Depression Visibility Wind Speed Wind Dir Waves Ship Positions

Hozan Maru

Last reported at 2017-Nov-19 11:25 UTC. Time now 2017-Nov-21 23:15 UTC.
Position N 34°37' E 134°55'.

Length 70 m; draft 4.8 m.

Type: Tanker. MMSI: 431501711.

Date/timePositionNaut miles runAvg speedWind from/ knotsBaromVisibWave heightAir tempDewpointWater temp
2017-Nov-19 11:25N 34°37' E 134°55'513.4
2017-Nov-19 11:00N 34°37' E 135°01'611.1
2017-Nov-19 10:30N 34°32' E 135°04'25 5.0
2017-Nov-19 05:24N 34°07' E 135°08'3 8.8
2017-Nov-19 05:00N 34°10' E 135°06'1114.0
2017-Nov-19 04:13N 34°21' E 135°05'314.8
2017-Nov-19 04:00N 34°24' E 135°04'714.2
2017-Nov-19 03:30N 34°31' E 135°04'712.6
2017-Nov-19 02:58N 34°37' E 135°00'4 0.3
2017-Nov-18 11:31N 34°37' E 134°55'011.3
2017-Nov-18 11:30N 34°37' E 134°55'713.9
2017-Nov-18 11:00N 34°36' E 135°04'2211.8
2017-Nov-18 09:10N 34°15' E 135°01'212.5
2017-Nov-18 09:00N 34°13' E 135°02'7 2.1
2017-Nov-18 05:38N 34°07' E 135°07'0 0.2
2017-Nov-18 05:30N 34°07' E 135°07'611.7
2017-Nov-18 05:00N 34°13' E 135°04'814.0
2017-Nov-18 04:26N 34°21' E 135°03'614.5
2017-Nov-18 04:00N 34°27' E 135°03'714.1
2017-Nov-18 03:30N 34°34' E 135°03'  
2017-Nov-15 10:54N 34°37' E 134°55'513.4
2017-Nov-15 10:30N 34°37' E 135°02'612.5
2017-Nov-15 10:00N 34°36' E 135°09'612.0
2017-Nov-15 09:30N 34°36' E 135°16'611.8
2017-Nov-15 09:00N 34°34' E 135°23'2 0.6
2017-Nov-15 05:17N 34°33' E 135°26'413.1
2017-Nov-15 05:00N 34°34' E 135°22'713.9
2017-Nov-15 04:30N 34°34' E 135°13'714.5
2017-Nov-15 04:00N 34°35' E 135°04'8 0.5
2017-Nov-14 10:51N 34°37' E 134°55'514.1
2017-Nov-14 10:29N 34°37' E 135°01'511.2
2017-Nov-14 10:00N 34°33' E 135°04'1812.9
2017-Nov-14 08:37N 34°15' E 135°01'213.7
2017-Nov-14 08:30N 34°14' E 135°02'612.9
2017-Nov-14 08:00N 34°08' E 135°06'  

Dump ship's entire track history